createdAt,value
2019-04-04T00:00:27.474Z,4
2019-04-04T00:01:27.631Z,4.5
2019-04-04T00:02:27.776Z,3.4
2019-04-04T00:03:27.883Z,4.8
2019-04-04T00:04:27.997Z,4.6
2019-04-04T00:05:28.161Z,4
2019-04-04T00:06:28.291Z,4.1
2019-04-04T00:07:28.982Z,4.1
2019-04-04T00:08:30.738Z,3.8
2019-04-04T00:09:31.153Z,4.1
2019-04-04T00:10:29.678Z,4
2019-04-04T00:11:29.723Z,3.6
2019-04-04T00:12:28.794Z,5.8
2019-04-04T00:13:28.750Z,3.9
2019-04-04T00:14:28.901Z,4.1
2019-04-04T00:15:29.026Z,3.4
2019-04-04T00:16:29.195Z,4.5
2019-04-04T00:17:29.322Z,3.8
2019-04-04T00:18:29.470Z,4.1
2019-04-04T00:19:30.440Z,3.5
2019-04-04T00:20:29.852Z,3.6
2019-04-04T00:21:29.842Z,3.4
2019-04-04T00:22:30.973Z,4.7
2019-04-04T00:23:30.989Z,5.9
2019-04-04T00:24:31.013Z,3.6
2019-04-04T00:25:30.055Z,3.4
2019-04-04T00:26:30.204Z,3.4
2019-04-04T00:27:30.328Z,3.3
2019-04-04T00:28:30.478Z,4.8
2019-04-04T00:29:30.623Z,4
2019-04-04T00:30:30.758Z,3.6
2019-04-04T00:31:30.867Z,3.3
2019-04-04T00:32:30.981Z,4
2019-04-04T00:33:31.113Z,3.6
2019-04-04T00:34:31.219Z,5.3
2019-04-04T00:35:31.719Z,3.8
2019-04-04T00:36:33.694Z,3.2
2019-04-04T00:37:34.418Z,5.2
2019-04-04T00:38:32.684Z,6.3
2019-04-04T00:39:32.717Z,3.4
2019-04-04T00:40:31.744Z,2.8
2019-04-04T00:41:31.874Z,3.5
2019-04-04T00:42:31.998Z,4.1
2019-04-04T00:43:32.130Z,5.8
2019-04-04T00:44:32.256Z,3.9
2019-04-04T00:45:32.383Z,3.3
2019-04-04T00:46:32.500Z,4.1
2019-04-04T00:47:33.012Z,3.9
2019-04-04T00:48:34.166Z,4.4
2019-04-04T00:49:35.353Z,3.1
2019-04-04T00:50:34.825Z,3.9
2019-04-04T00:51:33.990Z,3.9
2019-04-04T00:52:34.006Z,4.1
2019-04-04T00:53:33.068Z,4.3
2019-04-04T00:54:33.187Z,3.1
2019-04-04T00:55:33.328Z,5.1
2019-04-04T00:56:33.436Z,3.5
2019-04-04T00:57:33.583Z,4.2
2019-04-04T00:58:33.750Z,5.4
2019-04-04T00:59:33.866Z,3.6
2019-04-04T01:00:33.992Z,3
2019-04-04T01:01:34.130Z,3.6
2019-04-04T01:02:34.263Z,4.3
2019-04-04T01:03:34.386Z,4
2019-04-04T01:04:34.487Z,3
2019-04-04T01:05:34.622Z,3.9
2019-04-04T01:06:34.759Z,3.4
2019-04-04T01:07:35.790Z,3.3
2019-04-04T01:08:37.891Z,4
2019-04-04T01:09:36.186Z,3.4
2019-04-04T01:10:35.256Z,3.4
2019-04-04T01:11:35.218Z,3.3
2019-04-04T01:12:35.361Z,3.2
2019-04-04T01:13:35.489Z,3
2019-04-04T01:14:35.604Z,4.9
2019-04-04T01:15:35.733Z,3.2
2019-04-04T01:16:35.850Z,2.2
2019-04-04T01:17:35.981Z,3.5
2019-04-04T01:18:37.412Z,3.8
2019-04-04T01:19:36.189Z,3.9
2019-04-04T01:20:36.332Z,3.9
2019-04-04T01:21:36.463Z,3.9
2019-04-04T01:22:36.614Z,3.1
2019-04-04T01:23:36.736Z,3.5
2019-04-04T01:24:36.843Z,3.3
2019-04-04T01:25:36.975Z,3
2019-04-04T01:26:37.113Z,4.4
2019-04-04T01:27:37.639Z,3
2019-04-04T01:28:39.038Z,4
2019-04-04T01:29:38.960Z,2.9
2019-04-04T01:30:38.586Z,3
2019-04-04T01:31:38.718Z,2.7
2019-04-04T01:32:37.684Z,3.5
2019-04-04T01:33:37.821Z,2.9
2019-04-04T01:34:37.951Z,3.4
2019-04-04T01:35:38.088Z,3.5
2019-04-04T01:36:38.220Z,4.6
2019-04-04T01:37:38.349Z,5.2
2019-04-04T01:38:38.474Z,3
2019-04-04T01:39:38.591Z,3.1
2019-04-04T01:40:38.727Z,3.3
2019-04-04T01:41:38.842Z,3.1
2019-04-04T01:42:39.024Z,5.4
2019-04-04T01:43:40.011Z,3.9
2019-04-04T01:44:40.104Z,3.3
2019-04-04T01:45:43.645Z,4.1
2019-04-04T01:46:40.373Z,5.1
2019-04-04T01:47:40.385Z,3.5
2019-04-04T01:48:39.435Z,5.3
2019-04-04T01:49:39.564Z,3.5
2019-04-04T01:50:39.696Z,5.4
2019-04-04T01:51:39.815Z,4.6
2019-04-04T01:52:39.939Z,3.4
2019-04-04T01:53:40.043Z,4.6
2019-04-04T01:54:40.153Z,3.6
2019-04-04T01:55:40.281Z,3.9
2019-04-04T01:56:40.421Z,4.1
2019-04-04T01:57:40.537Z,3.7
2019-04-04T01:58:41.669Z,3.7
2019-04-04T01:59:41.919Z,4.2
2019-04-04T02:00:41.888Z,3.4
2019-04-04T02:01:41.912Z,4
2019-04-04T02:02:41.954Z,3.9
2019-04-04T02:03:40.962Z,3.6
2019-04-04T02:04:41.087Z,4.5
2019-04-04T02:05:41.210Z,3.8
2019-04-04T02:06:41.350Z,3
2019-04-04T02:07:41.483Z,5
2019-04-04T02:08:41.611Z,3.4
2019-04-04T02:09:43.363Z,4
2019-04-04T02:10:41.815Z,4
2019-04-04T02:11:41.958Z,4.1
2019-04-04T02:12:42.081Z,3.5
2019-04-04T02:13:42.198Z,4.6
2019-04-04T02:14:43.021Z,3.8
2019-04-04T02:15:42.772Z,3.5
2019-04-04T02:16:42.546Z,3.1
2019-04-04T02:17:43.680Z,3.7
2019-04-04T02:18:42.706Z,3.6
2019-04-04T02:19:42.823Z,3.9
2019-04-04T02:20:42.960Z,3.9
2019-04-04T02:21:43.101Z,3.7
2019-04-04T02:22:43.237Z,3.6
2019-04-04T02:23:43.362Z,3.3
2019-04-04T02:24:43.481Z,3.2
2019-04-04T02:25:43.603Z,4.1
2019-04-04T02:26:43.707Z,3.4
2019-04-04T02:27:43.850Z,5.4
2019-04-04T02:28:43.993Z,3.7
2019-04-04T02:29:45.095Z,2.8
2019-04-04T02:30:47.967Z,4
2019-04-04T02:31:45.236Z,4.9
2019-04-04T02:32:44.272Z,2.9
2019-04-04T02:33:45.410Z,2.9
2019-04-04T02:34:44.407Z,5.2
2019-04-04T02:35:44.528Z,4.9
2019-04-04T02:36:48.712Z,3.7
2019-04-04T02:37:45.778Z,3.5
2019-04-04T02:38:44.821Z,4
2019-04-04T02:39:44.922Z,3.8
2019-04-04T02:40:45.029Z,3.8
2019-04-04T02:41:48.145Z,3.5
2019-04-04T02:42:46.287Z,3.4
2019-04-04T02:43:45.328Z,4.5
2019-04-04T02:44:45.468Z,4.6
2019-04-04T02:45:45.635Z,3.4
2019-04-04T02:46:45.893Z,5.9
2019-04-04T02:47:50.096Z,3.7
2019-04-04T02:48:46.964Z,3.3
2019-04-04T02:49:46.002Z,3.3
2019-04-04T02:50:46.146Z,4.1
2019-04-04T02:51:46.251Z,4
2019-04-04T02:52:46.932Z,4.5
2019-04-04T02:53:46.510Z,5.4
2019-04-04T02:54:47.620Z,5
2019-04-04T02:55:46.680Z,3.9
2019-04-04T02:56:46.815Z,5.1
2019-04-04T02:57:46.922Z,4.3
2019-04-04T02:58:47.314Z,3.4
2019-04-04T02:59:47.161Z,5.3
2019-04-04T03:00:48.340Z,4.5
2019-04-04T03:01:47.349Z,3
2019-04-04T03:02:47.473Z,4.8
2019-04-04T03:03:47.574Z,3.7
2019-04-04T03:04:47.686Z,3.1
2019-04-04T03:05:50.648Z,4.2
2019-04-04T03:06:48.939Z,4
2019-04-04T03:07:47.966Z,5.6
2019-04-04T03:08:48.084Z,4.3
2019-04-04T03:09:48.225Z,4.6
2019-04-04T03:10:49.441Z,3
2019-04-04T03:11:48.455Z,3.5
2019-04-04T03:12:49.576Z,4.2
2019-04-04T03:13:48.606Z,6.4
2019-04-04T03:14:50.618Z,4.5
2019-04-04T03:15:48.734Z,4.7
2019-04-04T03:16:48.870Z,4.4
2019-04-04T03:17:48.985Z,4.1
2019-04-04T03:18:49.097Z,4.4
2019-04-04T03:19:49.208Z,4.1
2019-04-04T03:20:50.536Z,6.4
2019-04-04T03:21:49.441Z,4.9
2019-04-04T03:22:50.565Z,4.8
2019-04-04T03:23:49.574Z,5.2
2019-04-04T03:24:49.670Z,4.6
2019-04-04T03:25:49.790Z,3.8
2019-04-04T03:26:52.479Z,4.6
2019-04-04T03:27:51.045Z,5.3
2019-04-04T03:28:50.069Z,4.7
2019-04-04T03:29:50.185Z,6
2019-04-04T03:30:58.021Z,5.7
2019-04-04T03:31:52.394Z,3.1
2019-04-04T03:32:53.702Z,5.4
2019-04-04T03:33:51.607Z,4.3
2019-04-04T03:34:51.511Z,3.3
2019-04-04T03:35:50.714Z,4.9
2019-04-04T03:36:50.830Z,3.5
2019-04-04T03:37:50.948Z,3.1
2019-04-04T03:38:51.055Z,4
2019-04-04T03:39:52.889Z,5.2
2019-04-04T03:40:51.338Z,3.5
2019-04-04T03:41:52.433Z,3.6
2019-04-04T03:42:51.446Z,4.8
2019-04-04T03:43:51.555Z,3.7
2019-04-04T03:44:53.243Z,4.4
2019-04-04T03:45:51.804Z,4.2
2019-04-04T03:46:51.934Z,4.3
2019-04-04T03:47:52.021Z,3.8
2019-04-04T03:48:52.155Z,4.9
2019-04-04T03:49:56.317Z,5.7
2019-04-04T03:50:56.677Z,3.9
2019-04-04T03:51:53.410Z,3.4
2019-04-04T03:52:52.424Z,4.1
2019-04-04T03:53:52.553Z,3.6
2019-04-04T03:54:55.553Z,3.7
2019-04-04T03:55:53.779Z,6
2019-04-04T03:56:53.794Z,4.4
2019-04-04T03:57:55.060Z,5.9
2019-04-04T03:58:52.943Z,3.6
2019-04-04T03:59:53.096Z,4.2
2019-04-04T04:00:53.213Z,5
2019-04-04T04:01:53.311Z,3.9
2019-04-04T04:02:53.424Z,6.4
2019-04-04T04:03:55.331Z,3.9
2019-04-04T04:04:53.695Z,3.7
2019-04-04T04:05:54.809Z,3.1
2019-04-04T04:06:53.862Z,3.6
2019-04-04T04:07:53.959Z,3.8
2019-04-04T04:08:55.090Z,3.9
2019-04-04T04:09:54.188Z,3.4
2019-04-04T04:10:55.345Z,4.1
2019-04-04T04:11:54.355Z,5.2
2019-04-04T04:12:54.525Z,4.7
2019-04-04T04:13:54.627Z,4.5
2019-04-04T04:14:55.149Z,3.9
2019-04-04T04:15:54.851Z,4.7
2019-04-04T04:16:54.990Z,4.4
2019-04-04T04:17:55.125Z,4.1
2019-04-04T04:18:55.385Z,6.2
2019-04-04T04:19:55.379Z,4.2
2019-04-04T04:20:55.509Z,4.3
2019-04-04T04:21:55.650Z,3.9
2019-04-04T04:22:55.773Z,3.7
2019-04-04T04:23:56.848Z,3.7
2019-04-04T04:24:55.994Z,4.9
2019-04-04T04:25:57.130Z,4.7
2019-04-04T04:26:56.200Z,3.8
2019-04-04T04:27:56.325Z,3.1
2019-04-04T04:28:57.465Z,3.4
2019-04-04T04:29:56.521Z,4.1
2019-04-04T04:30:57.648Z,4.9
2019-04-04T04:31:56.719Z,4.5
2019-04-04T04:32:57.360Z,4.6
2019-04-04T04:34:00.434Z,3.9
2019-04-04T04:34:58.093Z,5.1
2019-04-04T04:35:57.151Z,3.9
2019-04-04T04:36:57.280Z,3.2
2019-04-04T04:37:57.409Z,4.3
2019-04-04T04:38:59.770Z,5.4
2019-04-04T04:39:57.692Z,3.3
2019-04-04T04:40:57.823Z,6
2019-04-04T04:41:57.959Z,3.5
2019-04-04T04:43:00.656Z,5
2019-04-04T04:43:58.244Z,4.5
2019-04-04T04:44:59.383Z,3.7
2019-04-04T04:45:58.472Z,4.9
2019-04-04T04:46:58.387Z,4.6
2019-04-04T04:47:59.193Z,4.1
2019-04-04T04:49:00.554Z,4.1
2019-04-04T04:49:59.726Z,4.9
2019-04-04T04:50:58.753Z,4.3
2019-04-04T04:51:58.885Z,4.7
2019-04-04T04:52:59.022Z,4.1
2019-04-04T04:53:59.148Z,3.9
2019-04-04T04:54:59.284Z,4.6
2019-04-04T04:56:00.743Z,5.4
2019-04-04T04:57:03.345Z,5.2
2019-04-04T04:58:00.614Z,5.4
2019-04-04T04:58:59.649Z,4.7
2019-04-04T04:59:59.803Z,4.2
2019-04-04T05:00:59.928Z,3.6
2019-04-04T05:02:00.059Z,3.8
2019-04-04T05:03:00.204Z,4.7
2019-04-04T05:04:02.495Z,4
2019-04-04T05:05:00.497Z,4.3
2019-04-04T05:06:02.608Z,4.4
2019-04-04T05:07:00.453Z,3.5
2019-04-04T05:08:00.751Z,4.6
2019-04-04T05:09:00.694Z,5.4
2019-04-04T05:10:00.818Z,4.4
2019-04-04T05:11:01.055Z,3.7
2019-04-04T05:12:01.045Z,3.4
2019-04-04T05:13:01.293Z,3.8
2019-04-04T05:14:01.225Z,4.1
2019-04-04T05:15:02.188Z,3.9
2019-04-04T05:16:02.022Z,5.1
2019-04-04T05:17:02.538Z,5.1
2019-04-04T05:18:01.610Z,4.8
2019-04-04T05:19:01.902Z,4.4
2019-04-04T05:20:02.009Z,4.9
2019-04-04T05:21:02.627Z,3.7
2019-04-04T05:22:02.027Z,4.1
2019-04-04T05:23:02.225Z,4.9
2019-04-04T05:24:02.223Z,4
2019-04-04T05:25:08.186Z,4.1
2019-04-04T05:26:03.414Z,6
2019-04-04T05:27:03.914Z,3.6
2019-04-04T05:28:06.052Z,4.4
2019-04-04T05:29:02.727Z,5.2
2019-04-04T05:30:02.692Z,4.6
2019-04-04T05:31:03.958Z,4.1
2019-04-04T05:32:03.117Z,6.3
2019-04-04T05:33:03.045Z,4.4
2019-04-04T05:34:03.216Z,5.6
2019-04-04T05:35:03.346Z,5.2
2019-04-04T05:36:05.195Z,4.9
2019-04-04T05:37:05.036Z,5.8
2019-04-04T05:38:07.585Z,4.8
2019-04-04T05:39:04.951Z,4.8
2019-04-04T05:40:03.833Z,4.8
2019-04-04T05:41:04.019Z,5.7
2019-04-04T05:42:04.135Z,5.2
2019-04-04T05:43:04.891Z,5.2
2019-04-04T05:44:08.871Z,6.4
2019-04-04T05:45:05.384Z,5.7
2019-04-04T05:46:04.418Z,6.5
2019-04-04T05:47:04.573Z,5.7
2019-04-04T05:48:04.695Z,8.5
2019-04-04T05:49:07.669Z,5.6
2019-04-04T05:50:05.945Z,6.2
2019-04-04T05:51:05.952Z,7.9
2019-04-04T05:52:08.789Z,6.7
2019-04-04T05:53:06.145Z,6.3
2019-04-04T05:54:07.343Z,6.9
2019-04-04T05:55:06.229Z,8.6
2019-04-04T05:56:06.630Z,8.1
2019-04-04T05:57:05.294Z,6.8
2019-04-04T05:58:05.489Z,7.5
2019-04-04T05:59:05.454Z,6.1
2019-04-04T06:00:05.639Z,7.3
2019-04-04T06:01:05.760Z,6.4
2019-04-04T06:02:05.912Z,8.6
2019-04-04T06:03:07.064Z,5.8
2019-04-04T06:04:06.071Z,7.2
2019-04-04T06:05:06.214Z,6.8
2019-04-04T06:06:06.363Z,6.6
2019-04-04T06:07:07.532Z,7.6
2019-04-04T06:08:08.079Z,5.9
2019-04-04T06:09:06.822Z,5.1
2019-04-04T06:10:06.797Z,7.1
2019-04-04T06:11:07.935Z,6.9
2019-04-04T06:12:06.983Z,4.9
2019-04-04T06:13:07.200Z,8.1
2019-04-04T06:14:07.168Z,5.8
2019-04-04T06:15:07.304Z,7.1
2019-04-04T06:16:07.451Z,9.1
2019-04-04T06:17:07.867Z,6
2019-04-04T06:18:10.821Z,7.7
2019-04-04T06:19:08.858Z,4.8
2019-04-04T06:20:08.920Z,6
2019-04-04T06:21:07.976Z,6.5
2019-04-04T06:22:08.139Z,6.5
2019-04-04T06:23:08.294Z,6.7
2019-04-04T06:24:08.440Z,5.9
2019-04-04T06:25:08.585Z,6.4
2019-04-04T06:26:08.729Z,4.5
2019-04-04T06:27:09.082Z,5.8
2019-04-04T06:28:09.869Z,7.2
2019-04-04T06:29:10.147Z,6.7
2019-04-04T06:30:09.202Z,6.3
2019-04-04T06:31:09.318Z,5.2
2019-04-04T06:32:09.506Z,5.3
2019-04-04T06:33:09.446Z,5.3
2019-04-04T06:34:10.824Z,6.4
2019-04-04T06:35:09.757Z,5.8
2019-04-04T06:36:10.918Z,5.7
2019-04-04T06:37:09.988Z,5.4
2019-04-04T06:38:09.964Z,4.9
2019-04-04T06:39:10.130Z,5.4
2019-04-04T06:40:10.266Z,5.4
2019-04-04T06:41:10.444Z,6.1
2019-04-04T06:42:11.360Z,5.7
2019-04-04T06:43:11.669Z,5.9
2019-04-04T06:44:12.887Z,5.6
2019-04-04T06:45:11.092Z,5.3
2019-04-04T06:46:12.254Z,5.2
2019-04-04T06:47:11.340Z,6.7
2019-04-04T06:48:12.540Z,6
2019-04-04T06:49:11.583Z,6.8
2019-04-04T06:50:11.817Z,6.7
2019-04-04T06:51:11.965Z,5.5
2019-04-04T06:52:13.020Z,5.6
2019-04-04T06:53:13.221Z,5.3
2019-04-04T06:54:12.426Z,5.2
2019-04-04T06:55:12.482Z,4.5
2019-04-04T06:56:12.465Z,4.9
2019-04-04T06:57:12.328Z,5.7
2019-04-04T06:58:12.495Z,5.7
2019-04-04T06:59:13.699Z,6.2
2019-04-04T07:00:15.286Z,3.9
2019-04-04T07:01:14.045Z,5.5
2019-04-04T07:02:13.117Z,5.2
2019-04-04T07:03:13.114Z,5.2
2019-04-04T07:04:13.268Z,4.1
2019-04-04T07:05:14.433Z,5
2019-04-04T07:06:13.558Z,4.7
2019-04-04T07:07:13.717Z,5.3
2019-04-04T07:08:15.088Z,4.7
2019-04-04T07:09:14.084Z,6
2019-04-04T07:10:15.100Z,5.4
2019-04-04T07:11:20.823Z,6
2019-04-04T07:12:21.138Z,5.2
2019-04-04T07:13:21.843Z,3.6
2019-04-04T07:14:15.316Z,5.7
2019-04-04T07:15:15.882Z,4.9
2019-04-04T07:16:14.533Z,6
2019-04-04T07:17:16.289Z,6.1
2019-04-04T07:18:14.553Z,5.4
2019-04-04T07:19:15.170Z,4.2
2019-04-04T07:20:16.536Z,7.1
2019-04-04T07:21:14.948Z,7
2019-04-04T07:22:16.259Z,6.1
2019-04-04T07:23:16.143Z,4.7
2019-04-04T07:24:15.200Z,6.2
2019-04-04T07:25:15.391Z,5.9
2019-04-04T07:26:15.464Z,6.5
2019-04-04T07:27:16.195Z,4
2019-04-04T07:28:16.829Z,5.9
2019-04-04T07:29:16.616Z,6.7
2019-04-04T07:30:15.661Z,3.4
2019-04-04T07:31:16.064Z,4.6
2019-04-04T07:32:16.049Z,5.6
2019-04-04T07:33:16.218Z,5.8
2019-04-04T07:34:17.057Z,4.9
2019-04-04T07:35:17.112Z,5
2019-04-04T07:36:18.087Z,6.1
2019-04-04T07:37:16.516Z,5.9
2019-04-04T07:38:17.918Z,5.7
2019-04-04T07:39:16.720Z,4.9
2019-04-04T07:40:16.801Z,7.5
2019-04-04T07:41:17.852Z,6
2019-04-04T07:42:18.430Z,7.9
2019-04-04T07:43:17.057Z,6.5
2019-04-04T07:44:18.109Z,5
2019-04-04T07:45:18.201Z,5.2
2019-04-04T07:46:17.330Z,5.2
2019-04-04T07:47:17.393Z,5
2019-04-04T07:48:18.625Z,6.8
2019-04-04T07:49:17.623Z,5.7
2019-04-04T07:50:18.902Z,5.4
2019-04-04T07:51:17.994Z,5.2
2019-04-04T07:52:19.033Z,4.6
2019-04-04T07:53:18.088Z,5.6
2019-04-04T07:54:18.105Z,7.2
2019-04-04T07:55:18.129Z,7.2
2019-04-04T07:56:18.558Z,6.7
2019-04-04T07:57:19.694Z,9.3
2019-04-04T07:58:18.570Z,6
2019-04-04T07:59:18.696Z,5.8
2019-04-04T08:00:18.639Z,5
2019-04-04T08:01:18.842Z,6.7
2019-04-04T08:02:18.849Z,5.6
2019-04-04T08:03:19.003Z,5.9
2019-04-04T08:04:19.155Z,5.7
2019-04-04T08:05:19.250Z,5.3
2019-04-04T08:06:19.266Z,6.6
2019-04-04T08:07:20.052Z,7.2
2019-04-04T08:08:19.346Z,6
2019-04-04T08:09:19.361Z,6
2019-04-04T08:10:21.117Z,5.9
2019-04-04T08:11:19.467Z,6.5
2019-04-04T08:12:19.486Z,5.5
2019-04-04T08:13:19.657Z,6.6
2019-04-04T08:14:19.698Z,6.3
2019-04-04T08:15:19.735Z,6.1
2019-04-04T08:16:20.096Z,5.8
2019-04-04T08:17:19.916Z,6.9
2019-04-04T08:18:19.987Z,8.6
2019-04-04T08:19:21.324Z,6.4
2019-04-04T08:20:20.346Z,4.3
2019-04-04T08:21:20.339Z,5.5
2019-04-04T08:22:20.624Z,6.1
2019-04-04T08:23:20.557Z,4.7
2019-04-04T08:24:20.595Z,4.6
2019-04-04T08:25:20.604Z,5.1
2019-04-04T08:26:20.708Z,3.8
2019-04-04T08:27:20.709Z,6.4
2019-04-04T08:28:20.851Z,4.1
2019-04-04T08:29:21.459Z,4.3
2019-04-04T08:30:21.047Z,4.2
2019-04-04T08:31:21.090Z,4.1
2019-04-04T08:32:21.102Z,4.9
2019-04-04T08:33:21.274Z,3
2019-04-04T08:34:21.293Z,4.3
2019-04-04T08:35:21.303Z,5.1
2019-04-04T08:36:21.329Z,3.3
2019-04-04T08:37:21.492Z,4.3
2019-04-04T08:38:21.683Z,3
2019-04-04T08:39:21.695Z,6.6
2019-04-04T08:40:21.722Z,3.4
2019-04-04T08:41:21.744Z,4
2019-04-04T08:42:24.123Z,6.6
2019-04-04T08:43:23.415Z,3.8
2019-04-04T08:44:22.127Z,3.4
2019-04-04T08:45:21.738Z,2.9
2019-04-04T08:46:21.762Z,6
2019-04-04T08:47:22.769Z,2.7
2019-04-04T08:48:21.812Z,3.4
2019-04-04T08:49:21.996Z,4.5
2019-04-04T08:50:21.962Z,2.9
2019-04-04T08:51:22.017Z,3.3
2019-04-04T08:52:21.957Z,4.1
2019-04-04T08:53:22.110Z,2.5
2019-04-04T08:54:22.312Z,2.6
2019-04-04T08:55:22.281Z,3.8
2019-04-04T08:56:22.498Z,2.9
2019-04-04T08:57:22.281Z,4
2019-04-04T08:58:22.432Z,3
2019-04-04T08:59:22.428Z,6.7
2019-04-04T09:00:22.432Z,6.7
2019-04-04T09:01:22.415Z,3.1
2019-04-04T09:02:22.937Z,3.1
2019-04-04T09:03:22.467Z,3.3
2019-04-04T09:04:24.133Z,2.8
2019-04-04T09:05:23.069Z,2.5
2019-04-04T09:06:22.467Z,2.6
2019-04-04T09:07:22.647Z,4.3
2019-04-04T09:08:22.603Z,4
2019-04-04T09:09:22.764Z,4.5
2019-04-04T09:10:22.909Z,2.8
2019-04-04T09:11:22.887Z,4
2019-04-04T09:12:22.944Z,4.4
2019-04-04T09:13:22.868Z,4
2019-04-04T09:14:23.042Z,2.9
2019-04-04T09:15:23.009Z,2.9
2019-04-04T09:16:23.090Z,3.2
2019-04-04T09:17:23.044Z,4.9
2019-04-04T09:18:23.658Z,2.8
2019-04-04T09:19:23.141Z,4.7
2019-04-04T09:20:23.148Z,2.4
2019-04-04T09:21:23.134Z,4.1
2019-04-04T09:22:24.188Z,5
2019-04-04T09:23:23.175Z,2.7
2019-04-04T09:24:23.467Z,4
2019-04-04T09:25:23.319Z,2.1
2019-04-04T09:26:23.287Z,2.4
2019-04-04T09:27:23.248Z,4.2
2019-04-04T09:28:23.239Z,5.2
2019-04-04T09:29:23.730Z,2.8
2019-04-04T09:30:23.602Z,3.4
2019-04-04T09:31:23.385Z,5.4
2019-04-04T09:32:23.496Z,3
2019-04-04T09:33:23.639Z,3.4
2019-04-04T09:34:23.771Z,2.6
2019-04-04T09:35:23.913Z,2.4
2019-04-04T09:36:24.069Z,2.4
2019-04-04T09:37:24.025Z,4.4
2019-04-04T09:38:24.190Z,4.5
2019-04-04T09:39:25.165Z,2.5
2019-04-04T09:40:24.237Z,2.5
2019-04-04T09:41:24.226Z,3.5
2019-04-04T09:42:24.254Z,3.4
2019-04-04T09:43:24.263Z,3.3
2019-04-04T09:44:24.273Z,2.7
2019-04-04T09:45:24.274Z,2.7
2019-04-04T09:46:24.228Z,3.5
2019-04-04T09:47:24.395Z,3.6
2019-04-04T09:48:24.404Z,2.3
2019-04-04T09:49:24.430Z,3
2019-04-04T09:50:24.394Z,5.9
2019-04-04T09:51:24.415Z,3.4
2019-04-04T09:52:25.456Z,3.3
2019-04-04T09:53:24.639Z,3
2019-04-04T09:54:24.629Z,2.4
2019-04-04T09:55:24.651Z,2.7
2019-04-04T09:56:24.783Z,1.6
2019-04-04T09:57:24.916Z,3.3
2019-04-04T09:58:25.112Z,2.9
2019-04-04T09:59:25.154Z,2.4
2019-04-04T10:00:25.162Z,2.2
2019-04-04T10:01:25.152Z,2.5
2019-04-04T10:02:25.131Z,2.8
2019-04-04T10:03:25.139Z,4.2
2019-04-04T10:04:25.150Z,3.7
2019-04-04T10:05:25.146Z,5.3
2019-04-04T10:06:25.118Z,3
2019-04-04T10:07:26.769Z,2.6
2019-04-04T10:08:28.204Z,3.4
2019-04-04T10:09:25.478Z,2.3
2019-04-04T10:10:25.451Z,2.6
2019-04-04T10:11:25.615Z,3.5
2019-04-04T10:12:25.641Z,4.1
2019-04-04T10:13:26.610Z,2.3
2019-04-04T10:14:25.769Z,4.1
2019-04-04T10:15:25.718Z,2.5
2019-04-04T10:16:26.283Z,3.4
2019-04-04T10:17:25.784Z,3.1
2019-04-04T10:18:26.236Z,4.3
2019-04-04T10:19:25.792Z,4.7
2019-04-04T10:20:26.441Z,2.1
2019-04-04T10:21:26.015Z,5.4
2019-04-04T10:22:25.890Z,4
2019-04-04T10:23:26.108Z,3
2019-04-04T10:24:25.933Z,3.1
2019-04-04T10:25:25.922Z,2.8
2019-04-04T10:26:25.958Z,2.8
2019-04-04T10:27:28.886Z,5.8
2019-04-04T10:28:26.039Z,4
2019-04-04T10:29:26.343Z,2.6
2019-04-04T10:30:26.280Z,4.7
2019-04-04T10:31:26.455Z,3.5
2019-04-04T10:32:26.251Z,2
2019-04-04T10:33:27.426Z,4.5
2019-04-04T10:34:28.330Z,3.7
2019-04-04T10:35:26.488Z,3
2019-04-04T10:36:26.339Z,2.5
2019-04-04T10:37:26.303Z,2.7
2019-04-04T10:38:26.340Z,4.4
2019-04-04T10:39:28.928Z,3
2019-04-04T10:40:27.800Z,2.7
2019-04-04T10:41:26.536Z,2.1
2019-04-04T10:42:27.955Z,3.9
2019-04-04T10:43:26.717Z,2.2
2019-04-04T10:44:26.722Z,3
2019-04-04T10:45:26.794Z,3
2019-04-04T10:46:26.901Z,4.1
2019-04-04T10:47:26.874Z,2.6
2019-04-04T10:48:26.914Z,3.4
2019-04-04T10:49:27.001Z,3.7
2019-04-04T10:50:27.005Z,4.6
2019-04-04T10:51:26.991Z,2.5
2019-04-04T10:52:26.997Z,4.5
2019-04-04T10:53:26.972Z,2.5
2019-04-04T10:54:26.930Z,4
2019-04-04T10:55:27.042Z,2.8
2019-04-04T10:56:27.073Z,2.1
2019-04-04T10:57:27.071Z,2.4
2019-04-04T10:58:28.093Z,3.3
2019-04-04T10:59:27.308Z,6.3
2019-04-04T11:00:27.282Z,2.2
2019-04-04T11:01:27.272Z,1.9
2019-04-04T11:02:27.253Z,2.4
2019-04-04T11:03:27.270Z,1.9
2019-04-04T11:04:27.809Z,2
2019-04-04T11:05:27.427Z,3.1
2019-04-04T11:06:27.431Z,5.7
2019-04-04T11:07:27.632Z,3
2019-04-04T11:08:27.541Z,3.2
2019-04-04T11:09:27.777Z,1.4
2019-04-04T11:10:28.651Z,1.9
2019-04-04T11:11:27.993Z,2.7
2019-04-04T11:12:27.834Z,5.8
2019-04-04T11:13:33.606Z,2.6
2019-04-04T11:14:28.884Z,2.4
2019-04-04T11:15:27.991Z,4
2019-04-04T11:16:30.206Z,3.2
2019-04-04T11:17:27.967Z,2.8
2019-04-04T11:18:28.582Z,3.2
2019-04-04T11:19:31.229Z,2.8
2019-04-04T11:20:29.195Z,2.6
2019-04-04T11:21:28.278Z,2.3
2019-04-04T11:22:28.354Z,5.5
2019-04-04T11:23:28.368Z,3
2019-04-04T11:24:28.398Z,5.4
2019-04-04T11:25:28.443Z,3.4
2019-04-04T11:26:28.602Z,2.4
2019-04-04T11:27:28.620Z,4.5
2019-04-04T11:28:28.665Z,2.7
2019-04-04T11:29:28.680Z,4
2019-04-04T11:30:28.795Z,3
2019-04-04T11:31:28.828Z,3.8
2019-04-04T11:32:28.867Z,2.2
2019-04-04T11:33:28.906Z,2.1
2019-04-04T11:34:28.937Z,3.6
2019-04-04T11:35:29.060Z,1.5
2019-04-04T11:36:29.077Z,3.7
2019-04-04T11:37:29.172Z,2.2
2019-04-04T11:38:29.251Z,3
2019-04-04T11:39:29.274Z,3.1
2019-04-04T11:40:29.306Z,3.7
2019-04-04T11:41:29.412Z,3.7
2019-04-04T11:42:29.393Z,3.3
2019-04-04T11:43:29.410Z,2.5
2019-04-04T11:44:30.762Z,2
2019-04-04T11:45:29.665Z,3.9
2019-04-04T11:46:29.522Z,3.6
2019-04-04T11:47:29.549Z,4.4
2019-04-04T11:48:29.696Z,6
2019-04-04T11:49:29.877Z,2.4
2019-04-04T11:50:29.832Z,2.7
2019-04-04T11:51:30.292Z,4.4
2019-04-04T11:52:29.897Z,6
2019-04-04T11:53:29.890Z,4.8
2019-04-04T11:54:30.065Z,2.7
2019-04-04T11:55:30.304Z,2.9
2019-04-04T11:56:30.002Z,4
2019-04-04T11:57:29.991Z,3.6
2019-04-04T11:58:30.001Z,2.1
2019-04-04T11:59:29.969Z,2.7
2019-04-04T12:00:30.127Z,3.8
2019-04-04T12:01:30.141Z,3.7
2019-04-04T12:02:32.503Z,2.7
2019-04-04T12:03:30.292Z,3.5
2019-04-04T12:04:30.304Z,8
2019-04-04T12:05:30.362Z,9.6
2019-04-04T12:06:30.405Z,8.8
2019-04-04T12:07:30.560Z,12.2
2019-04-04T12:08:30.684Z,11.2
2019-04-04T12:09:30.671Z,10.1
2019-04-04T12:10:31.105Z,10.4
2019-04-04T12:11:30.944Z,11.6
2019-04-04T12:12:31.043Z,10
2019-04-04T12:13:32.074Z,10
2019-04-04T12:14:34.114Z,9.2
2019-04-04T12:15:31.686Z,10.3
2019-04-04T12:16:32.782Z,9.9
2019-04-04T12:17:31.343Z,12.6
2019-04-04T12:18:31.565Z,12.1
2019-04-04T12:19:31.623Z,12.6
2019-04-04T12:20:32.687Z,11.3
2019-04-04T12:21:31.741Z,11
2019-04-04T12:22:31.917Z,12.5
2019-04-04T12:23:32.326Z,12.6
2019-04-04T12:24:32.157Z,12.8
2019-04-04T12:25:32.310Z,11.1
2019-04-04T12:26:32.504Z,11.5
2019-04-04T12:27:32.943Z,12.2
2019-04-04T12:28:33.290Z,11.4
2019-04-04T12:29:34.118Z,11.4
2019-04-04T12:30:34.671Z,13.5
2019-04-04T12:31:33.038Z,12.7
2019-04-04T12:32:33.426Z,14.3
2019-04-04T12:33:33.383Z,13.1
2019-04-04T12:34:33.412Z,11.3
2019-04-04T12:35:33.669Z,13.6
2019-04-04T12:36:33.784Z,9.4
2019-04-04T12:37:34.084Z,17.200001
2019-04-04T12:38:34.082Z,11.9
2019-04-04T12:39:34.103Z,11.6
2019-04-04T12:40:34.618Z,15.1
2019-04-04T12:41:34.193Z,9.7
2019-04-04T12:42:34.385Z,11.1
2019-04-04T12:43:34.407Z,11.6
2019-04-04T12:44:34.693Z,12.3
2019-04-04T12:45:34.632Z,9.8
2019-04-04T12:46:35.727Z,9.6
2019-04-04T12:47:34.930Z,11
2019-04-04T12:48:35.266Z,12
2019-04-04T12:49:35.420Z,9.9
2019-04-04T12:50:35.396Z,11.8
2019-04-04T12:51:35.583Z,9
2019-04-04T12:52:36.938Z,10.1
2019-04-04T12:53:36.115Z,10.8
2019-04-04T12:54:36.044Z,10
2019-04-04T12:55:36.263Z,11.4
2019-04-04T12:56:36.421Z,10.4
2019-04-04T12:57:36.658Z,11.4
2019-04-04T12:58:36.782Z,9.7
2019-04-04T12:59:36.956Z,10.9
2019-04-04T13:00:37.111Z,10.2
2019-04-04T13:01:37.108Z,11.1
2019-04-04T13:02:37.257Z,12.8
2019-04-04T13:03:37.382Z,11.9
2019-04-04T13:04:37.639Z,11.5
2019-04-04T13:05:37.786Z,10.3
2019-04-04T13:06:37.864Z,11
2019-04-04T13:07:37.984Z,12.2
2019-04-04T13:08:38.135Z,8
2019-04-04T13:09:38.920Z,6.3
2019-04-04T13:10:38.236Z,9.9
2019-04-04T13:11:38.508Z,10
2019-04-04T13:12:38.605Z,8
2019-04-04T13:13:38.941Z,6.9
2019-04-04T13:14:40.077Z,5.8
2019-04-04T13:15:38.823Z,7.1
2019-04-04T13:16:38.830Z,7.9
2019-04-04T13:17:39.186Z,9.1
2019-04-04T13:18:39.351Z,7.3
2019-04-04T13:19:39.307Z,6.5
2019-04-04T13:20:39.671Z,7
2019-04-04T13:21:39.386Z,7.5
2019-04-04T13:22:39.524Z,7.4
2019-04-04T13:23:39.546Z,6.5
2019-04-04T13:24:40.059Z,5.5
2019-04-04T13:25:39.689Z,6.4
2019-04-04T13:26:39.935Z,6.7
2019-04-04T13:27:39.998Z,5.9
2019-04-04T13:28:40.092Z,4.6
2019-04-04T13:29:40.140Z,7.1
2019-04-04T13:30:40.148Z,5.2
2019-04-04T13:31:40.222Z,5.8
2019-04-04T13:32:40.230Z,6.6
2019-04-04T13:33:40.263Z,6
2019-04-04T13:34:40.311Z,7.1
2019-04-04T13:35:40.387Z,4.5
2019-04-04T13:36:40.398Z,4.2
2019-04-04T13:37:40.437Z,5.8
2019-04-04T13:38:40.538Z,5.3
2019-04-04T13:39:40.658Z,5.6
2019-04-04T13:40:45.543Z,6.1
2019-04-04T13:41:42.530Z,7.2
2019-04-04T13:42:40.901Z,5
2019-04-04T13:43:40.920Z,4.9
2019-04-04T13:44:40.913Z,3.9
2019-04-04T13:45:41.964Z,6.2
2019-04-04T13:46:41.067Z,5.1
2019-04-04T13:47:41.091Z,5.4
2019-04-04T13:48:43.494Z,5.1
2019-04-04T13:49:42.140Z,4.9
2019-04-04T13:50:42.576Z,4.7
2019-04-04T13:51:42.086Z,5.6
2019-04-04T13:52:41.771Z,4.9